SAS1415 RPLL-VTBS
Flight info
| Callsign | SAS1415 |
|---|---|
| Flight time | 3h 16m |
| Altitude | 34000 |
| Route | SIRCA2R SIRCA L628 ARESI/K0830F340 L628 PCA G474 ANINA/N0447F340 G474 VEMKO M633 DULEM TUMGA1C |
| Aircraft | A21N/M-SDE2E3FGHIRWXY/LB1 |
Departure
| Time | 2026-05-05 08:05 |
|---|---|
| Airport | Ninoy Aquino International Airport (RPLL) |
Arrival
| Time | 2026-05-05 11:22 |
|---|---|
| Airport | Suvarnabhumi Airport (VTBS) |
| Time | Latitude | Longitude | Altitude | Speed | Heading |
|---|---|---|---|---|---|
| 2026-05-05 07:38 | 14.51896 | 121.01270 | 62 ft | 0 kts | 45° |
| 2026-05-05 07:57 | 14.51893 | 121.01267 | 69 ft | 3 kts | 45° |
| 2026-05-05 07:57 | 14.51874 | 121.01248 | 59 ft | 4 kts | 45° |
| 2026-05-05 07:58 | 14.51857 | 121.01230 | 61 ft | 2 kts | 45° |
| 2026-05-05 07:58 | 14.51838 | 121.01216 | 60 ft | 4 kts | 7° |
| 2026-05-05 07:58 | 14.51815 | 121.01221 | 64 ft | 4 kts | 321° |
| 2026-05-05 07:58 | 14.51816 | 121.01219 | 65 ft | 4 kts | 315° |
| 2026-05-05 07:59 | 14.51835 | 121.01199 | 59 ft | 4 kts | 315° |
| 2026-05-05 07:59 | 14.51854 | 121.01180 | 61 ft | 4 kts | 315° |
| 2026-05-05 07:59 | 14.51873 | 121.01160 | 61 ft | 4 kts | 315° |
| 2026-05-05 07:59 | 14.51879 | 121.01154 | 62 ft | 0 kts | 315° |
| 2026-05-05 08:02 | 14.51882 | 121.01151 | 60 ft | 4 kts | 315° |
| 2026-05-05 08:02 | 14.51939 | 121.01092 | 66 ft | 19 kts | 315° |
| 2026-05-05 08:03 | 14.52067 | 121.00962 | 59 ft | 32 kts | 315° |
| 2026-05-05 08:03 | 14.52248 | 121.00775 | 64 ft | 38 kts | 315° |
| 2026-05-05 08:03 | 14.52434 | 121.00583 | 66 ft | 37 kts | 315° |
| 2026-05-05 08:03 | 14.52482 | 121.00487 | 62 ft | 11 kts | 238° |
| 2026-05-05 08:04 | 14.52413 | 121.00414 | 63 ft | 17 kts | 225° |
| 2026-05-05 08:04 | 14.52360 | 121.00397 | 63 ft | 8 kts | 148° |
| 2026-05-05 08:04 | 14.52325 | 121.00438 | 67 ft | 8 kts | 120° |
| 2026-05-05 08:04 | 14.52281 | 121.00486 | 62 ft | 18 kts | 134° |
| 2026-05-05 08:05 | 14.52024 | 121.00753 | 64 ft | 85 kts | 135° |
| 2026-05-05 08:05 | 14.51468 | 121.01330 | 59 ft | 140 kts | 135° |
| 2026-05-05 08:05 | 14.50691 | 121.02138 | 293 ft | 162 kts | 130° |
| 2026-05-05 08:05 | 14.49906 | 121.02907 | 1061 ft | 151 kts | 133° |
| 2026-05-05 08:06 | 14.49124 | 121.03659 | 1545 ft | 161 kts | 128° |
| 2026-05-05 08:06 | 14.48622 | 121.04761 | 1834 ft | 182 kts | 106° |
| 2026-05-05 08:06 | 14.48277 | 121.06102 | 2168 ft | 204 kts | 103° |
| 2026-05-05 08:06 | 14.47878 | 121.07568 | 2482 ft | 219 kts | 109° |
| 2026-05-05 08:07 | 14.47052 | 121.08915 | 2929 ft | 230 kts | 131° |
| 2026-05-05 08:07 | 14.45680 | 121.09909 | 3034 ft | 255 kts | 155° |
| 2026-05-05 08:07 | 14.43893 | 121.10299 | 3422 ft | 269 kts | 178° |
| 2026-05-05 08:07 | 14.42059 | 121.09970 | 4038 ft | 276 kts | 200° |
| 2026-05-05 08:08 | 14.40426 | 121.08906 | 4648 ft | 283 kts | 224° |
| 2026-05-05 08:08 | 14.39328 | 121.07200 | 5149 ft | 292 kts | 249° |
| 2026-05-05 08:08 | 14.39037 | 121.05133 | 5744 ft | 293 kts | 276° |
| 2026-05-05 08:08 | 14.39593 | 121.03114 | 6298 ft | 295 kts | 297° |
| 2026-05-05 08:09 | 14.40499 | 121.01221 | 6893 ft | 294 kts | 297° |
| 2026-05-05 08:09 | 14.41411 | 120.99318 | 7436 ft | 297 kts | 297° |
| 2026-05-05 08:09 | 14.42330 | 120.97391 | 7937 ft | 302 kts | 296° |
| 2026-05-05 08:09 | 14.43241 | 120.95476 | 8499 ft | 302 kts | 296° |
| 2026-05-05 08:10 | 14.44182 | 120.93494 | 9061 ft | 304 kts | 296° |
| 2026-05-05 08:10 | 14.45115 | 120.91522 | 9584 ft | 307 kts | 296° |
| 2026-05-05 08:10 | 14.46056 | 120.89531 | 10073 ft | 310 kts | 296° |
| 2026-05-05 08:10 | 14.46767 | 120.87422 | 10269 ft | 324 kts | 280° |
| 2026-05-05 08:11 | 14.47170 | 120.85080 | 10396 ft | 340 kts | 279° |
| 2026-05-05 08:11 | 14.47589 | 120.82627 | 10504 ft | 355 kts | 279° |
| 2026-05-05 08:11 | 14.48018 | 120.80088 | 10784 ft | 362 kts | 278° |
| 2026-05-05 08:11 | 14.48329 | 120.77486 | 11192 ft | 366 kts | 276° |
| 2026-05-05 08:12 | 14.48573 | 120.74866 | 11637 ft | 368 kts | 274° |
| 2026-05-05 08:12 | 14.48626 | 120.72220 | 12070 ft | 370 kts | 269° |
| 2026-05-05 08:12 | 14.48569 | 120.69561 | 12500 ft | 372 kts | 268° |
| 2026-05-05 08:12 | 14.48449 | 120.66895 | 12925 ft | 374 kts | 266° |
| 2026-05-05 08:13 | 14.48278 | 120.64207 | 13351 ft | 376 kts | 265° |
| 2026-05-05 08:13 | 14.48079 | 120.61505 | 13751 ft | 378 kts | 265° |
| 2026-05-05 08:13 | 14.47869 | 120.58791 | 14108 ft | 381 kts | 265° |
| 2026-05-05 08:13 | 14.47661 | 120.56075 | 14368 ft | 386 kts | 265° |
| 2026-05-05 08:14 | 14.47457 | 120.53312 | 14774 ft | 387 kts | 265° |
| 2026-05-05 08:14 | 14.47258 | 120.50541 | 15156 ft | 388 kts | 265° |
| 2026-05-05 08:14 | 14.47064 | 120.47770 | 15548 ft | 389 kts | 265° |
| 2026-05-05 08:14 | 14.46871 | 120.44978 | 15895 ft | 391 kts | 265° |
| 2026-05-05 08:15 | 14.46679 | 120.42173 | 16190 ft | 394 kts | 265° |
| 2026-05-05 08:15 | 14.46486 | 120.39349 | 16592 ft | 394 kts | 265° |
| 2026-05-05 08:15 | 14.46290 | 120.36535 | 17007 ft | 394 kts | 265° |
| 2026-05-05 08:15 | 14.46093 | 120.33711 | 17360 ft | 395 kts | 265° |
| 2026-05-05 08:16 | 14.45893 | 120.30885 | 17702 ft | 397 kts | 265° |
| 2026-05-05 08:16 | 14.45691 | 120.28039 | 18037 ft | 398 kts | 265° |
| 2026-05-05 08:16 | 14.45489 | 120.25177 | 18336 ft | 400 kts | 265° |
| 2026-05-05 08:16 | 14.45288 | 120.22319 | 18635 ft | 401 kts | 265° |
| 2026-05-05 08:17 | 14.45084 | 120.19437 | 18931 ft | 403 kts | 265° |
| 2026-05-05 08:17 | 14.44878 | 120.16554 | 19212 ft | 404 kts | 264° |
| 2026-05-05 08:17 | 14.44671 | 120.13653 | 19490 ft | 406 kts | 265° |
| 2026-05-05 08:17 | 14.44465 | 120.10748 | 19771 ft | 407 kts | 265° |
| 2026-05-05 08:18 | 14.44256 | 120.07839 | 20079 ft | 407 kts | 265° |
| 2026-05-05 08:18 | 14.44047 | 120.04922 | 20352 ft | 408 kts | 265° |
| 2026-05-05 08:18 | 14.43836 | 120.01989 | 20627 ft | 409 kts | 264° |
| 2026-05-05 08:18 | 14.43627 | 119.99062 | 20894 ft | 411 kts | 265° |
| 2026-05-05 08:19 | 14.43416 | 119.96120 | 21155 ft | 412 kts | 265° |
| 2026-05-05 08:19 | 14.43204 | 119.93160 | 21404 ft | 414 kts | 265° |
| 2026-05-05 08:19 | 14.42993 | 119.90198 | 21649 ft | 415 kts | 264° |
| 2026-05-05 08:19 | 14.42779 | 119.87221 | 21911 ft | 417 kts | 264° |
| 2026-05-05 08:20 | 14.42564 | 119.84235 | 22150 ft | 418 kts | 265° |
| 2026-05-05 08:20 | 14.42348 | 119.81275 | 22394 ft | 420 kts | 265° |
| 2026-05-05 08:20 | 14.42125 | 119.78265 | 22649 ft | 421 kts | 265° |
| 2026-05-05 08:20 | 14.41905 | 119.75257 | 22896 ft | 422 kts | 265° |
| 2026-05-05 08:21 | 14.41684 | 119.72224 | 23150 ft | 424 kts | 265° |
| 2026-05-05 08:21 | 14.41464 | 119.69196 | 23379 ft | 425 kts | 265° |
| 2026-05-05 08:21 | 14.41241 | 119.66136 | 23582 ft | 427 kts | 265° |
| 2026-05-05 08:21 | 14.41018 | 119.63086 | 23786 ft | 428 kts | 265° |
| 2026-05-05 08:22 | 14.40793 | 119.60019 | 23996 ft | 429 kts | 265° |
| 2026-05-05 08:22 | 14.40568 | 119.56953 | 24197 ft | 430 kts | 265° |
| 2026-05-05 08:22 | 14.40340 | 119.53853 | 24395 ft | 431 kts | 265° |
| 2026-05-05 08:22 | 14.40115 | 119.50769 | 24613 ft | 432 kts | 265° |
| 2026-05-05 08:23 | 14.39888 | 119.47680 | 24819 ft | 433 kts | 265° |
| 2026-05-05 08:23 | 14.39658 | 119.44563 | 25014 ft | 435 kts | 265° |
| 2026-05-05 08:23 | 14.39426 | 119.41440 | 25216 ft | 436 kts | 265° |
| 2026-05-05 08:23 | 14.39191 | 119.38326 | 25410 ft | 437 kts | 265° |
| 2026-05-05 08:24 | 14.38955 | 119.35197 | 25611 ft | 438 kts | 265° |
| 2026-05-05 08:24 | 14.38722 | 119.32089 | 25805 ft | 439 kts | 265° |
| 2026-05-05 08:24 | 14.38489 | 119.28948 | 25998 ft | 440 kts | 265° |
| 2026-05-05 08:24 | 14.38258 | 119.25797 | 26192 ft | 442 kts | 265° |
| 2026-05-05 08:25 | 14.38020 | 119.22628 | 26383 ft | 443 kts | 264° |
| 2026-05-05 08:25 | 14.37781 | 119.19462 | 26571 ft | 444 kts | 264° |
| 2026-05-05 08:25 | 14.37539 | 119.16283 | 26767 ft | 445 kts | 264° |
| 2026-05-05 08:25 | 14.37297 | 119.13099 | 26959 ft | 446 kts | 264° |
| 2026-05-05 08:26 | 14.37054 | 119.09887 | 27124 ft | 448 kts | 264° |
| 2026-05-05 08:26 | 14.36818 | 119.06729 | 27288 ft | 449 kts | 264° |
| 2026-05-05 08:26 | 14.36574 | 119.03467 | 27474 ft | 451 kts | 264° |
| 2026-05-05 08:26 | 14.36331 | 119.00246 | 27658 ft | 452 kts | 264° |
| 2026-05-05 08:27 | 14.36084 | 118.97008 | 27843 ft | 453 kts | 264° |
| 2026-05-05 08:27 | 14.35842 | 118.93807 | 28035 ft | 454 kts | 264° |
| 2026-05-05 08:27 | 14.35592 | 118.90505 | 28234 ft | 455 kts | 265° |
| 2026-05-05 08:27 | 14.35345 | 118.87303 | 28404 ft | 456 kts | 264° |
| 2026-05-05 08:28 | 14.35089 | 118.84035 | 28586 ft | 457 kts | 264° |
| 2026-05-05 08:28 | 14.34832 | 118.80763 | 28765 ft | 458 kts | 264° |
| 2026-05-05 08:28 | 14.34577 | 118.77481 | 28946 ft | 460 kts | 264° |
| 2026-05-05 08:28 | 14.34321 | 118.74178 | 29106 ft | 461 kts | 264° |
| 2026-05-05 08:29 | 14.34067 | 118.70885 | 29270 ft | 462 kts | 264° |
| 2026-05-05 08:29 | 14.33816 | 118.67581 | 29428 ft | 463 kts | 264° |
| 2026-05-05 08:29 | 14.33568 | 118.64299 | 29612 ft | 463 kts | 265° |
| 2026-05-05 08:30 | 14.33058 | 118.57669 | 29931 ft | 464 kts | 264° |
| 2026-05-05 08:30 | 14.32799 | 118.54351 | 30067 ft | 464 kts | 265° |
| 2026-05-05 08:30 | 14.32537 | 118.51025 | 30192 ft | 465 kts | 265° |
| 2026-05-05 08:30 | 14.32273 | 118.47700 | 30307 ft | 466 kts | 265° |
| 2026-05-05 08:31 | 14.32008 | 118.44357 | 30428 ft | 466 kts | 265° |
| 2026-05-05 08:31 | 14.31747 | 118.41030 | 30548 ft | 466 kts | 265° |
| 2026-05-05 08:31 | 14.31489 | 118.37729 | 30694 ft | 466 kts | 265° |
| 2026-05-05 08:31 | 14.31227 | 118.34403 | 30849 ft | 465 kts | 265° |
| 2026-05-05 08:32 | 14.30961 | 118.31089 | 31023 ft | 464 kts | 265° |
| 2026-05-05 08:32 | 14.30695 | 118.27734 | 31191 ft | 463 kts | 265° |
| 2026-05-05 08:32 | 14.30437 | 118.24474 | 31352 ft | 462 kts | 265° |
| 2026-05-05 08:32 | 14.30179 | 118.21167 | 31511 ft | 461 kts | 265° |
| 2026-05-05 08:33 | 14.29923 | 118.17873 | 31685 ft | 460 kts | 265° |
| 2026-05-05 08:33 | 14.29665 | 118.14585 | 31847 ft | 459 kts | 265° |
| 2026-05-05 08:33 | 14.29405 | 118.11309 | 32023 ft | 459 kts | 265° |
| 2026-05-05 08:33 | 14.29144 | 118.08034 | 32187 ft | 458 kts | 265° |
| 2026-05-05 08:34 | 14.28882 | 118.04766 | 32375 ft | 456 kts | 265° |
| 2026-05-05 08:34 | 14.28618 | 118.01516 | 32585 ft | 454 kts | 265° |
| 2026-05-05 08:34 | 14.28357 | 117.98279 | 32776 ft | 453 kts | 265° |
| 2026-05-05 08:34 | 14.28094 | 117.95050 | 32955 ft | 451 kts | 265° |
| 2026-05-05 08:35 | 14.27835 | 117.91868 | 33128 ft | 450 kts | 265° |
| 2026-05-05 08:35 | 14.27575 | 117.88652 | 33300 ft | 449 kts | 266° |
| 2026-05-05 08:35 | 14.27317 | 117.85443 | 33472 ft | 448 kts | 266° |
| 2026-05-05 08:35 | 14.27059 | 117.82237 | 33638 ft | 447 kts | 266° |
| 2026-05-05 08:36 | 14.26801 | 117.79040 | 33807 ft | 446 kts | 266° |
| 2026-05-05 08:36 | 14.26286 | 117.72733 | 33858 ft | 439 kts | 266° |
| 2026-05-05 08:37 | 14.25779 | 117.66470 | 33862 ft | 437 kts | 266° |
| 2026-05-05 08:37 | 14.25269 | 117.60217 | 33857 ft | 437 kts | 266° |
| 2026-05-05 08:38 | 14.24753 | 117.53948 | 33861 ft | 440 kts | 266° |
| 2026-05-05 08:38 | 14.24235 | 117.47690 | 33862 ft | 441 kts | 265° |
| 2026-05-05 08:39 | 14.23717 | 117.41400 | 33875 ft | 440 kts | 266° |
| 2026-05-05 08:39 | 14.23195 | 117.35123 | 33878 ft | 440 kts | 266° |
| 2026-05-05 08:40 | 14.22675 | 117.28842 | 33882 ft | 439 kts | 266° |
| 2026-05-05 08:40 | 14.22243 | 117.23622 | 33881 ft | 439 kts | 266° |
| 2026-05-05 08:41 | 14.21720 | 117.17349 | 33880 ft | 439 kts | 266° |
| 2026-05-05 08:41 | 14.21187 | 117.11087 | 33884 ft | 438 kts | 266° |
| 2026-05-05 08:42 | 14.20662 | 117.04826 | 33883 ft | 438 kts | 266° |
| 2026-05-05 08:42 | 14.20137 | 116.98565 | 33883 ft | 438 kts | 266° |
| 2026-05-05 08:43 | 14.19602 | 116.92311 | 33882 ft | 438 kts | 266° |
| 2026-05-05 08:43 | 14.19073 | 116.86065 | 33882 ft | 438 kts | 265° |
| 2026-05-05 08:44 | 14.18544 | 116.79813 | 33887 ft | 437 kts | 265° |
| 2026-05-05 08:44 | 14.18005 | 116.73584 | 33887 ft | 436 kts | 265° |
| 2026-05-05 08:45 | 14.17465 | 116.67356 | 33886 ft | 436 kts | 265° |
| 2026-05-05 08:45 | 14.16933 | 116.61132 | 33885 ft | 436 kts | 265° |
| 2026-05-05 08:46 | 14.16402 | 116.54961 | 33888 ft | 435 kts | 265° |
| 2026-05-05 08:46 | 14.15868 | 116.48752 | 33888 ft | 435 kts | 265° |
| 2026-05-05 08:47 | 14.15328 | 116.42550 | 33887 ft | 434 kts | 265° |
| 2026-05-05 08:47 | 14.14787 | 116.36353 | 33885 ft | 434 kts | 265° |
| 2026-05-05 08:48 | 14.14243 | 116.30159 | 33884 ft | 433 kts | 265° |
| 2026-05-05 08:48 | 14.13700 | 116.23979 | 33881 ft | 433 kts | 265° |
| 2026-05-05 08:49 | 14.13163 | 116.17825 | 33878 ft | 434 kts | 265° |
| 2026-05-05 08:49 | 14.12624 | 116.11633 | 33876 ft | 434 kts | 265° |
| 2026-05-05 08:50 | 14.12076 | 116.05435 | 33876 ft | 434 kts | 265° |
| 2026-05-05 08:50 | 14.11519 | 115.99242 | 33870 ft | 434 kts | 265° |
| 2026-05-05 08:51 | 14.10972 | 115.93033 | 33873 ft | 435 kts | 265° |
| 2026-05-05 08:51 | 14.10425 | 115.86861 | 33869 ft | 435 kts | 265° |
| 2026-05-05 08:52 | 14.09866 | 115.80646 | 33871 ft | 436 kts | 265° |
| 2026-05-05 08:52 | 14.09305 | 115.74433 | 33872 ft | 436 kts | 265° |
| 2026-05-05 08:53 | 14.08747 | 115.68207 | 33874 ft | 436 kts | 265° |
| 2026-05-05 08:53 | 14.08185 | 115.61990 | 33872 ft | 436 kts | 265° |
| 2026-05-05 08:54 | 14.07622 | 115.55763 | 33869 ft | 437 kts | 265° |
| 2026-05-05 08:54 | 14.07060 | 115.49529 | 33869 ft | 437 kts | 265° |
| 2026-05-05 08:55 | 14.06494 | 115.43292 | 33867 ft | 437 kts | 265° |
| 2026-05-05 08:55 | 14.05928 | 115.37091 | 33873 ft | 437 kts | 265° |
| 2026-05-05 08:56 | 14.05359 | 115.30859 | 33875 ft | 438 kts | 265° |
| 2026-05-05 08:56 | 14.04779 | 115.24614 | 33876 ft | 438 kts | 265° |
| 2026-05-05 08:57 | 14.04204 | 115.18376 | 33877 ft | 437 kts | 265° |
| 2026-05-05 08:57 | 14.03636 | 115.12140 | 33877 ft | 437 kts | 265° |
| 2026-05-05 08:58 | 14.03057 | 115.05928 | 33877 ft | 437 kts | 265° |
| 2026-05-05 08:58 | 14.02470 | 114.99658 | 33877 ft | 437 kts | 265° |
| 2026-05-05 08:59 | 14.01890 | 114.93454 | 33876 ft | 438 kts | 265° |
| 2026-05-05 08:59 | 14.01314 | 114.87219 | 33876 ft | 438 kts | 265° |
| 2026-05-05 09:00 | 14.00742 | 114.80981 | 33876 ft | 438 kts | 265° |
| 2026-05-05 09:00 | 14.00155 | 114.74739 | 33878 ft | 438 kts | 265° |
| 2026-05-05 09:01 | 13.99561 | 114.68507 | 33879 ft | 438 kts | 265° |
| 2026-05-05 09:01 | 13.98970 | 114.62260 | 33878 ft | 438 kts | 265° |
| 2026-05-05 09:02 | 13.98378 | 114.56024 | 33878 ft | 438 kts | 265° |
| 2026-05-05 09:02 | 13.97784 | 114.49786 | 33877 ft | 438 kts | 265° |
| 2026-05-05 09:03 | 13.97335 | 114.43584 | 33877 ft | 437 kts | 271° |
| 2026-05-05 09:03 | 13.97395 | 114.37323 | 33880 ft | 437 kts | 271° |
| 2026-05-05 09:04 | 13.97439 | 114.31071 | 33881 ft | 437 kts | 271° |
| 2026-05-05 09:04 | 13.97479 | 114.24824 | 33881 ft | 436 kts | 271° |
| 2026-05-05 09:05 | 13.97517 | 114.18581 | 33877 ft | 436 kts | 271° |
| 2026-05-05 09:05 | 13.97564 | 114.12329 | 33878 ft | 436 kts | 271° |
| 2026-05-05 09:06 | 13.97601 | 114.06127 | 33882 ft | 436 kts | 271° |
| 2026-05-05 09:06 | 13.97633 | 113.99853 | 33880 ft | 436 kts | 271° |
| 2026-05-05 09:07 | 13.97662 | 113.93612 | 33879 ft | 436 kts | 271° |
| 2026-05-05 09:07 | 13.97698 | 113.87413 | 33878 ft | 436 kts | 271° |
| 2026-05-05 09:08 | 13.97732 | 113.81173 | 33877 ft | 436 kts | 271° |
| 2026-05-05 09:08 | 13.97762 | 113.74937 | 33874 ft | 436 kts | 271° |
| 2026-05-05 09:09 | 13.97791 | 113.68703 | 33874 ft | 436 kts | 271° |
| 2026-05-05 09:09 | 13.97817 | 113.62460 | 33870 ft | 436 kts | 271° |
| 2026-05-05 09:10 | 13.97844 | 113.56199 | 33869 ft | 436 kts | 271° |
| 2026-05-05 09:10 | 13.97868 | 113.49951 | 33870 ft | 437 kts | 271° |
| 2026-05-05 09:11 | 13.97898 | 113.43706 | 33872 ft | 437 kts | 271° |
| 2026-05-05 09:11 | 13.97921 | 113.37480 | 33873 ft | 437 kts | 270° |
| 2026-05-05 09:12 | 13.97942 | 113.31218 | 33873 ft | 437 kts | 270° |
| 2026-05-05 09:12 | 13.97957 | 113.24963 | 33872 ft | 437 kts | 270° |
| 2026-05-05 09:13 | 13.97971 | 113.18704 | 33872 ft | 437 kts | 270° |
| 2026-05-05 09:13 | 13.97980 | 113.12450 | 33874 ft | 437 kts | 270° |
| 2026-05-05 09:14 | 13.97992 | 113.06187 | 33878 ft | 437 kts | 270° |
| 2026-05-05 09:14 | 13.98002 | 112.99923 | 33880 ft | 437 kts | 270° |
| 2026-05-05 09:15 | 13.98014 | 112.93673 | 33881 ft | 437 kts | 270° |
| 2026-05-05 09:15 | 13.98027 | 112.87422 | 33881 ft | 436 kts | 270° |
| 2026-05-05 09:16 | 13.98038 | 112.81176 | 33883 ft | 436 kts | 270° |
| 2026-05-05 09:16 | 13.98042 | 112.74928 | 33881 ft | 436 kts | 270° |
| 2026-05-05 09:17 | 13.98043 | 112.68722 | 33879 ft | 436 kts | 270° |
| 2026-05-05 09:17 | 13.98044 | 112.62472 | 33878 ft | 436 kts | 270° |
| 2026-05-05 09:18 | 13.98048 | 112.56225 | 33875 ft | 436 kts | 270° |
| 2026-05-05 09:18 | 13.98049 | 112.49982 | 33876 ft | 436 kts | 270° |
| 2026-05-05 09:19 | 13.98052 | 112.43737 | 33875 ft | 436 kts | 270° |
| 2026-05-05 09:19 | 13.98051 | 112.37489 | 33875 ft | 437 kts | 270° |
| 2026-05-05 09:20 | 13.98041 | 112.31229 | 33878 ft | 437 kts | 270° |
| 2026-05-05 09:20 | 13.98032 | 112.24976 | 33879 ft | 437 kts | 270° |
| 2026-05-05 09:21 | 13.98018 | 112.18722 | 33880 ft | 437 kts | 270° |
| 2026-05-05 09:21 | 13.98010 | 112.12466 | 33885 ft | 437 kts | 270° |
| 2026-05-05 09:22 | 13.98009 | 112.06244 | 33885 ft | 436 kts | 270° |
| 2026-05-05 09:22 | 13.97997 | 112.00007 | 33886 ft | 436 kts | 270° |
| 2026-05-05 09:23 | 13.97972 | 111.93766 | 33889 ft | 436 kts | 270° |
| 2026-05-05 09:23 | 13.97950 | 111.87532 | 33891 ft | 435 kts | 270° |
| 2026-05-05 09:24 | 13.97940 | 111.81302 | 33889 ft | 435 kts | 270° |
| 2026-05-05 09:24 | 13.97928 | 111.75067 | 33888 ft | 435 kts | 270° |
| 2026-05-05 09:25 | 13.97902 | 111.68849 | 33889 ft | 434 kts | 270° |
| 2026-05-05 09:25 | 13.97877 | 111.62624 | 33889 ft | 434 kts | 270° |
| 2026-05-05 09:26 | 13.97851 | 111.56408 | 33888 ft | 434 kts | 270° |
| 2026-05-05 09:26 | 13.97827 | 111.50201 | 33888 ft | 434 kts | 270° |
| 2026-05-05 09:27 | 13.97807 | 111.43984 | 33887 ft | 434 kts | 270° |
| 2026-05-05 09:27 | 13.97772 | 111.37773 | 33886 ft | 434 kts | 270° |
| 2026-05-05 09:28 | 13.97733 | 111.31596 | 33886 ft | 434 kts | 270° |
| 2026-05-05 09:28 | 13.97698 | 111.25384 | 33889 ft | 434 kts | 270° |
| 2026-05-05 09:29 | 13.97667 | 111.20216 | 33888 ft | 433 kts | 270° |
| 2026-05-05 09:29 | 13.97633 | 111.14014 | 33887 ft | 434 kts | 270° |
| 2026-05-05 09:30 | 13.97599 | 111.07802 | 33873 ft | 434 kts | 270° |
| 2026-05-05 09:30 | 13.97554 | 111.01572 | 33862 ft | 435 kts | 270° |
| 2026-05-05 09:31 | 13.97512 | 110.95341 | 33865 ft | 436 kts | 270° |
| 2026-05-05 09:31 | 13.97470 | 110.89077 | 33867 ft | 436 kts | 270° |
| 2026-05-05 09:32 | 13.97423 | 110.82865 | 33875 ft | 437 kts | 270° |
| 2026-05-05 09:32 | 13.97369 | 110.76609 | 33872 ft | 437 kts | 270° |
| 2026-05-05 09:33 | 13.97319 | 110.70349 | 33873 ft | 437 kts | 270° |
| 2026-05-05 09:33 | 13.97269 | 110.64082 | 33876 ft | 438 kts | 270° |
| 2026-05-05 09:34 | 13.97224 | 110.57819 | 33879 ft | 438 kts | 270° |
| 2026-05-05 09:34 | 13.97170 | 110.51552 | 33881 ft | 438 kts | 270° |
| 2026-05-05 09:35 | 13.97110 | 110.45279 | 33882 ft | 438 kts | 269° |
| 2026-05-05 09:35 | 13.97024 | 110.35866 | 33882 ft | 438 kts | 269° |
| 2026-05-05 09:36 | 13.96969 | 110.29576 | 33883 ft | 438 kts | 269° |
| 2026-05-05 09:36 | 13.96909 | 110.23298 | 33884 ft | 439 kts | 269° |
| 2026-05-05 09:37 | 13.96848 | 110.17020 | 33886 ft | 439 kts | 269° |
| 2026-05-05 09:37 | 13.96785 | 110.10783 | 33887 ft | 439 kts | 269° |
| 2026-05-05 09:38 | 13.96710 | 110.04502 | 33889 ft | 439 kts | 269° |
| 2026-05-05 09:38 | 13.96641 | 109.98218 | 33891 ft | 438 kts | 269° |
| 2026-05-05 09:39 | 13.96595 | 109.91931 | 33891 ft | 438 kts | 269° |
| 2026-05-05 09:39 | 13.96553 | 109.85662 | 33892 ft | 438 kts | 269° |
| 2026-05-05 09:40 | 13.96506 | 109.79382 | 33893 ft | 438 kts | 269° |
| 2026-05-05 09:40 | 13.96445 | 109.73144 | 33897 ft | 438 kts | 269° |
| 2026-05-05 09:41 | 13.96383 | 109.66887 | 33897 ft | 438 kts | 269° |
| 2026-05-05 09:41 | 13.96336 | 109.60611 | 33897 ft | 437 kts | 269° |
| 2026-05-05 09:42 | 13.96280 | 109.54345 | 33899 ft | 437 kts | 269° |
| 2026-05-05 09:42 | 13.96219 | 109.48096 | 33899 ft | 437 kts | 269° |
| 2026-05-05 09:43 | 13.96152 | 109.41857 | 33898 ft | 437 kts | 269° |
| 2026-05-05 09:43 | 13.96089 | 109.36145 | 33898 ft | 438 kts | 269° |
| 2026-05-05 09:44 | 13.96023 | 109.29883 | 33896 ft | 438 kts | 269° |
| 2026-05-05 09:44 | 13.95954 | 109.23612 | 33901 ft | 438 kts | 269° |
| 2026-05-05 09:45 | 13.95876 | 109.17337 | 33901 ft | 438 kts | 269° |
| 2026-05-05 09:45 | 13.95802 | 109.11063 | 33907 ft | 438 kts | 269° |
| 2026-05-05 09:46 | 13.95737 | 109.04790 | 33903 ft | 438 kts | 270° |
| 2026-05-05 09:46 | 13.95872 | 108.98556 | 33903 ft | 438 kts | 273° |
| 2026-05-05 09:47 | 13.96255 | 108.92290 | 33909 ft | 439 kts | 274° |
| 2026-05-05 09:47 | 13.96641 | 108.86162 | 33910 ft | 439 kts | 273° |
| 2026-05-05 09:48 | 13.96769 | 108.83798 | 33918 ft | 437 kts | 274° |
| 2026-05-05 09:48 | 13.96621 | 108.81930 | 33979 ft | 431 kts | 254° |
| 2026-05-05 09:48 | 13.95984 | 108.80105 | 33929 ft | 432 kts | 239° |
| 2026-05-05 09:49 | 13.94267 | 108.78285 | 34045 ft | 420 kts | 207° |
| 2026-05-05 09:49 | 13.93127 | 108.77765 | 34469 ft | 402 kts | 198° |
| 2026-05-05 09:49 | 13.91459 | 108.77302 | 35564 ft | 362 kts | 192° |
| 2026-05-05 09:49 | 13.90260 | 108.77129 | 36360 ft | 338 kts | 188° |
| 2026-05-05 09:50 | 13.89484 | 108.77063 | 36776 ft | 327 kts | 185° |
| 2026-05-05 09:50 | 13.88039 | 108.76997 | 36801 ft | 329 kts | 184° |
| 2026-05-05 09:50 | 13.85882 | 108.77015 | 35702 ft | 366 kts | 179° |
| 2026-05-05 09:50 | 13.84072 | 108.77147 | 34991 ft | 391 kts | 176° |
| 2026-05-05 09:51 | 13.82870 | 108.77285 | 34825 ft | 395 kts | 178° |
| 2026-05-05 09:51 | 13.80271 | 108.77399 | 35317 ft | 371 kts | 186° |
| 2026-05-05 09:51 | 13.77965 | 108.77129 | 36175 ft | 342 kts | 195° |
| 2026-05-05 09:51 | 13.76492 | 108.76763 | 36432 ft | 334 kts | 201° |
| 2026-05-05 09:52 | 13.74109 | 108.75813 | 36007 ft | 346 kts | 210° |
| 2026-05-05 09:52 | 13.72045 | 108.74575 | 35394 ft | 364 kts | 218° |
| 2026-05-05 09:52 | 13.70215 | 108.73058 | 35261 ft | 365 kts | 226° |
| 2026-05-05 09:53 | 13.69224 | 108.72005 | 35457 ft | 355 kts | 233° |
| 2026-05-05 09:53 | 13.68205 | 108.70511 | 35690 ft | 345 kts | 248° |
| 2026-05-05 09:53 | 13.67661 | 108.68842 | 35493 ft | 348 kts | 264° |
| 2026-05-05 09:53 | 13.67675 | 108.66849 | 35014 ft | 362 kts | 284° |
| 2026-05-05 09:54 | 13.68541 | 108.64708 | 34525 ft | 378 kts | 307° |
| 2026-05-05 09:54 | 13.70208 | 108.63072 | 34509 ft | 381 kts | 329° |
| 2026-05-05 09:54 | 13.71808 | 108.62365 | 34778 ft | 373 kts | 347° |
| 2026-05-05 09:54 | 13.73403 | 108.62193 | 34942 ft | 370 kts | 6° |
| 2026-05-05 09:55 | 13.75868 | 108.62916 | 34633 ft | 382 kts | 25° |
| 2026-05-05 09:55 | 13.76967 | 108.63620 | 34415 ft | 390 kts | 39° |
| 2026-05-05 09:55 | 13.77796 | 108.64347 | 34254 ft | 394 kts | 41° |
| 2026-05-05 09:56 | 13.79476 | 108.66232 | 34247 ft | 391 kts | 54° |
| 2026-05-05 09:56 | 13.80675 | 108.68299 | 34514 ft | 379 kts | 67° |
| 2026-05-05 09:56 | 13.81190 | 108.69786 | 34757 ft | 372 kts | 75° |
| 2026-05-05 09:57 | 13.81450 | 108.70992 | 34906 ft | 367 kts | 82° |
| 2026-05-05 09:57 | 13.81724 | 108.73543 | 34973 ft | 367 kts | 87° |
| 2026-05-05 09:57 | 13.81854 | 108.78820 | 34923 ft | 372 kts | 87° |
| 2026-05-05 09:58 | 13.82243 | 108.82367 | 34871 ft | 372 kts | 69° |
| 2026-05-05 09:58 | 13.83304 | 108.84543 | 34378 ft | 384 kts | 48° |
| 2026-05-05 09:58 | 13.85268 | 108.86465 | 33832 ft | 400 kts | 38° |
| 2026-05-05 09:59 | 13.89839 | 108.89681 | 33899 ft | 399 kts | 16° |
| 2026-05-05 09:59 | 13.92550 | 108.90146 | 33916 ft | 394 kts | 352° |
| 2026-05-05 09:59 | 13.95171 | 108.89457 | 33916 ft | 390 kts | 329° |
| 2026-05-05 10:00 | 13.97273 | 108.87738 | 33916 ft | 387 kts | 305° |
| 2026-05-05 10:00 | 13.98493 | 108.85295 | 33918 ft | 387 kts | 282° |
| 2026-05-05 10:00 | 13.98678 | 108.82545 | 33927 ft | 390 kts | 264° |
| 2026-05-05 10:00 | 13.98298 | 108.79762 | 33925 ft | 394 kts | 262° |
| 2026-05-05 10:01 | 13.97450 | 108.74104 | 33924 ft | 404 kts | 262° |
| 2026-05-05 10:01 | 13.97195 | 108.68260 | 33929 ft | 413 kts | 272° |
| 2026-05-05 10:02 | 13.97611 | 108.62335 | 33928 ft | 423 kts | 275° |
| 2026-05-05 10:02 | 13.98093 | 108.56212 | 33929 ft | 433 kts | 274° |
| 2026-05-05 10:03 | 13.98432 | 108.49989 | 33929 ft | 436 kts | 273° |
| 2026-05-05 10:03 | 13.98699 | 108.43737 | 33929 ft | 437 kts | 272° |
| 2026-05-05 10:04 | 13.98974 | 108.37476 | 33926 ft | 438 kts | 272° |
| 2026-05-05 10:04 | 13.99263 | 108.31206 | 33926 ft | 438 kts | 272° |
| 2026-05-05 10:05 | 13.99557 | 108.24942 | 33930 ft | 438 kts | 272° |
| 2026-05-05 10:05 | 13.99849 | 108.18674 | 33931 ft | 438 kts | 272° |
| 2026-05-05 10:06 | 13.99946 | 108.16592 | 33929 ft | 438 kts | 272° |
| 2026-05-05 10:06 | 14.00228 | 108.10532 | 33907 ft | 438 kts | 272° |
| 2026-05-05 10:07 | 14.00523 | 108.04272 | 33913 ft | 438 kts | 272° |
| 2026-05-05 10:07 | 14.00610 | 107.97989 | 33908 ft | 438 kts | 268° |
| 2026-05-05 10:08 | 14.00325 | 107.91723 | 33912 ft | 438 kts | 266° |
| 2026-05-05 10:08 | 13.99984 | 107.85453 | 33909 ft | 438 kts | 267° |
| 2026-05-05 10:09 | 13.99726 | 107.79180 | 33908 ft | 438 kts | 268° |
| 2026-05-05 10:09 | 13.99517 | 107.72913 | 33898 ft | 438 kts | 268° |
| 2026-05-05 10:10 | 13.99296 | 107.66642 | 33898 ft | 438 kts | 267° |
| 2026-05-05 10:10 | 13.99060 | 107.60409 | 33893 ft | 438 kts | 267° |
| 2026-05-05 10:11 | 13.98819 | 107.54137 | 33883 ft | 439 kts | 267° |
| 2026-05-05 10:11 | 13.98618 | 107.48875 | 33884 ft | 439 kts | 267° |
| 2026-05-05 10:12 | 13.98375 | 107.42557 | 33879 ft | 439 kts | 266° |
| 2026-05-05 10:12 | 13.97506 | 107.36348 | 33884 ft | 438 kts | 261° |
| 2026-05-05 10:13 | 13.96533 | 107.30150 | 33878 ft | 438 kts | 261° |
| 2026-05-05 10:13 | 13.95575 | 107.23957 | 33876 ft | 438 kts | 261° |
| 2026-05-05 10:14 | 13.94327 | 107.17830 | 33869 ft | 437 kts | 249° |
| 2026-05-05 10:14 | 13.91308 | 107.12430 | 33868 ft | 437 kts | 231° |
| 2026-05-05 10:15 | 13.87468 | 107.07635 | 33863 ft | 437 kts | 231° |
| 2026-05-05 10:15 | 13.83617 | 107.02782 | 33859 ft | 437 kts | 232° |
| 2026-05-05 10:16 | 13.79793 | 106.97909 | 33862 ft | 436 kts | 236° |
| 2026-05-05 10:16 | 13.77154 | 106.92341 | 33862 ft | 434 kts | 255° |
| 2026-05-05 10:17 | 13.76242 | 106.87273 | 33854 ft | 434 kts | 261° |
| 2026-05-05 10:17 | 13.75117 | 106.80148 | 33852 ft | 434 kts | 261° |
| 2026-05-05 10:18 | 13.74303 | 106.75045 | 33848 ft | 434 kts | 261° |
| 2026-05-05 10:18 | 13.73324 | 106.68918 | 33843 ft | 434 kts | 261° |
| 2026-05-05 10:19 | 13.72346 | 106.62790 | 33831 ft | 435 kts | 261° |
| 2026-05-05 10:19 | 13.71370 | 106.56647 | 33831 ft | 435 kts | 261° |
| 2026-05-05 10:20 | 13.70387 | 106.50499 | 33834 ft | 435 kts | 261° |
| 2026-05-05 10:20 | 13.69404 | 106.44354 | 33830 ft | 436 kts | 261° |
| 2026-05-05 10:21 | 13.68422 | 106.38204 | 33832 ft | 436 kts | 260° |
| 2026-05-05 10:21 | 13.67435 | 106.32063 | 33823 ft | 436 kts | 260° |
| 2026-05-05 10:22 | 13.66451 | 106.25932 | 33813 ft | 437 kts | 260° |
| 2026-05-05 10:22 | 13.65458 | 106.19769 | 33811 ft | 437 kts | 260° |
| 2026-05-05 10:23 | 13.64455 | 106.13590 | 33814 ft | 438 kts | 260° |
| 2026-05-05 10:23 | 13.64251 | 106.07343 | 33815 ft | 438 kts | 271° |
| 2026-05-05 10:24 | 13.64468 | 106.01070 | 33820 ft | 439 kts | 271° |
| 2026-05-05 10:24 | 13.64666 | 105.94799 | 33815 ft | 439 kts | 271° |
| 2026-05-05 10:25 | 13.64863 | 105.88511 | 33815 ft | 440 kts | 271° |
| 2026-05-05 10:25 | 13.65064 | 105.82221 | 33817 ft | 440 kts | 271° |
| 2026-05-05 10:26 | 13.65259 | 105.75926 | 33820 ft | 440 kts | 271° |
| 2026-05-05 10:26 | 13.65459 | 105.69637 | 33823 ft | 441 kts | 271° |
| 2026-05-05 10:27 | 13.65656 | 105.63378 | 33822 ft | 441 kts | 271° |
| 2026-05-05 10:27 | 13.65846 | 105.57075 | 33817 ft | 441 kts | 271° |
| 2026-05-05 10:28 | 13.66040 | 105.50756 | 33817 ft | 442 kts | 271° |
| 2026-05-05 10:28 | 13.66233 | 105.44440 | 33819 ft | 442 kts | 271° |
| 2026-05-05 10:29 | 13.66424 | 105.38123 | 33821 ft | 442 kts | 271° |
| 2026-05-05 10:29 | 13.66616 | 105.31806 | 33825 ft | 442 kts | 271° |
| 2026-05-05 10:30 | 13.66797 | 105.25529 | 33828 ft | 442 kts | 271° |
| 2026-05-05 10:30 | 13.66976 | 105.19173 | 33828 ft | 442 kts | 271° |
| 2026-05-05 10:31 | 13.67154 | 105.12899 | 33830 ft | 442 kts | 271° |
| 2026-05-05 10:31 | 13.67338 | 105.06586 | 33830 ft | 441 kts | 271° |
| 2026-05-05 10:32 | 13.67520 | 105.00274 | 33830 ft | 441 kts | 271° |
| 2026-05-05 10:32 | 13.67700 | 104.93960 | 33830 ft | 441 kts | 271° |
| 2026-05-05 10:33 | 13.67876 | 104.87645 | 33832 ft | 441 kts | 271° |
| 2026-05-05 10:33 | 13.68047 | 104.81343 | 33833 ft | 441 kts | 271° |
| 2026-05-05 10:34 | 13.68215 | 104.75078 | 33839 ft | 441 kts | 271° |
| 2026-05-05 10:34 | 13.68385 | 104.68772 | 33836 ft | 441 kts | 271° |
| 2026-05-05 10:35 | 13.68558 | 104.62477 | 33841 ft | 441 kts | 271° |
| 2026-05-05 10:35 | 13.68725 | 104.56175 | 33839 ft | 441 kts | 271° |
| 2026-05-05 10:36 | 13.68887 | 104.49874 | 33847 ft | 441 kts | 271° |
| 2026-05-05 10:36 | 13.69051 | 104.43573 | 33845 ft | 441 kts | 271° |
| 2026-05-05 10:37 | 13.69222 | 104.37272 | 33844 ft | 441 kts | 271° |
| 2026-05-05 10:37 | 13.69389 | 104.30970 | 33847 ft | 441 kts | 271° |
| 2026-05-05 10:38 | 13.69544 | 104.24710 | 33849 ft | 441 kts | 271° |
| 2026-05-05 10:38 | 13.69699 | 104.18409 | 33847 ft | 441 kts | 271° |
| 2026-05-05 10:39 | 13.69854 | 104.12108 | 33848 ft | 441 kts | 271° |
| 2026-05-05 10:39 | 13.70005 | 104.05805 | 33851 ft | 441 kts | 271° |
| 2026-05-05 10:40 | 13.70163 | 103.99509 | 33852 ft | 441 kts | 271° |
| 2026-05-05 10:40 | 13.70310 | 103.93204 | 33852 ft | 441 kts | 271° |
| 2026-05-05 10:41 | 13.70455 | 103.86940 | 33853 ft | 441 kts | 271° |
| 2026-05-05 10:41 | 13.70604 | 103.80642 | 33854 ft | 441 kts | 271° |
| 2026-05-05 10:42 | 13.70823 | 103.71181 | 33852 ft | 441 kts | 271° |
| 2026-05-05 10:43 | 13.70966 | 103.64881 | 33854 ft | 441 kts | 271° |
| 2026-05-05 10:43 | 13.71108 | 103.58572 | 33851 ft | 441 kts | 271° |
| 2026-05-05 10:44 | 13.71254 | 103.52264 | 33850 ft | 441 kts | 271° |
| 2026-05-05 10:44 | 13.71395 | 103.45956 | 33852 ft | 441 kts | 271° |
| 2026-05-05 10:45 | 13.71526 | 103.39680 | 33849 ft | 441 kts | 271° |
| 2026-05-05 10:45 | 13.71664 | 103.33369 | 33846 ft | 441 kts | 271° |
| 2026-05-05 10:46 | 13.71807 | 103.27075 | 33592 ft | 438 kts | 271° |
| 2026-05-05 10:46 | 13.71872 | 103.23954 | 33345 ft | 435 kts | 271° |
| 2026-05-05 10:46 | 13.71934 | 103.20850 | 33086 ft | 433 kts | 270° |
| 2026-05-05 10:46 | 13.71996 | 103.17758 | 32829 ft | 432 kts | 271° |
| 2026-05-05 10:47 | 13.72061 | 103.14675 | 32590 ft | 430 kts | 271° |
| 2026-05-05 10:47 | 13.72127 | 103.11606 | 32343 ft | 428 kts | 271° |
| 2026-05-05 10:47 | 13.72191 | 103.08548 | 32100 ft | 427 kts | 271° |
| 2026-05-05 10:47 | 13.72253 | 103.05500 | 31859 ft | 425 kts | 271° |
| 2026-05-05 10:48 | 13.72313 | 103.02495 | 31623 ft | 424 kts | 271° |
| 2026-05-05 10:48 | 13.72374 | 102.99425 | 31383 ft | 423 kts | 271° |
| 2026-05-05 10:48 | 13.72431 | 102.96405 | 31149 ft | 422 kts | 271° |
| 2026-05-05 10:48 | 13.72488 | 102.93402 | 30917 ft | 420 kts | 271° |
| 2026-05-05 10:49 | 13.72548 | 102.90432 | 30684 ft | 419 kts | 271° |
| 2026-05-05 10:49 | 13.72610 | 102.87438 | 30461 ft | 418 kts | 271° |
| 2026-05-05 10:49 | 13.72668 | 102.84462 | 30234 ft | 416 kts | 271° |
| 2026-05-05 10:49 | 13.72724 | 102.81488 | 30009 ft | 415 kts | 271° |
| 2026-05-05 10:50 | 13.72782 | 102.78515 | 29764 ft | 414 kts | 271° |
| 2026-05-05 10:50 | 13.72836 | 102.75567 | 29488 ft | 412 kts | 271° |
| 2026-05-05 10:50 | 13.72888 | 102.72621 | 29234 ft | 411 kts | 271° |
| 2026-05-05 10:50 | 13.72938 | 102.69689 | 28973 ft | 409 kts | 271° |
| 2026-05-05 10:51 | 13.72991 | 102.66770 | 28712 ft | 407 kts | 271° |
| 2026-05-05 10:51 | 13.73046 | 102.63869 | 28457 ft | 406 kts | 271° |
| 2026-05-05 10:51 | 13.73104 | 102.60974 | 28209 ft | 404 kts | 271° |
| 2026-05-05 10:51 | 13.73161 | 102.58087 | 27959 ft | 403 kts | 271° |
| 2026-05-05 10:52 | 13.73211 | 102.55213 | 27705 ft | 401 kts | 271° |
| 2026-05-05 10:52 | 13.73259 | 102.52389 | 27467 ft | 399 kts | 271° |
| 2026-05-05 10:52 | 13.73307 | 102.49540 | 27223 ft | 398 kts | 271° |
| 2026-05-05 10:52 | 13.73356 | 102.46700 | 26980 ft | 396 kts | 271° |
| 2026-05-05 10:53 | 13.73407 | 102.43876 | 26742 ft | 395 kts | 271° |
| 2026-05-05 10:53 | 13.73459 | 102.41054 | 26505 ft | 394 kts | 271° |
| 2026-05-05 10:53 | 13.73510 | 102.38236 | 26272 ft | 392 kts | 271° |
| 2026-05-05 10:53 | 13.73560 | 102.35438 | 26036 ft | 390 kts | 271° |
| 2026-05-05 10:54 | 13.73607 | 102.32657 | 25806 ft | 389 kts | 271° |
| 2026-05-05 10:54 | 13.73654 | 102.29877 | 25576 ft | 388 kts | 271° |
| 2026-05-05 10:54 | 13.73698 | 102.27108 | 25348 ft | 386 kts | 271° |
| 2026-05-05 10:54 | 13.73566 | 102.24356 | 25121 ft | 385 kts | 263° |
| 2026-05-05 10:55 | 13.73052 | 102.21657 | 24898 ft | 384 kts | 255° |
| 2026-05-05 10:55 | 13.72192 | 102.19057 | 24671 ft | 384 kts | 250° |
| 2026-05-05 10:55 | 13.71253 | 102.16523 | 24453 ft | 383 kts | 250° |
| 2026-05-05 10:55 | 13.70295 | 102.13934 | 24232 ft | 382 kts | 250° |
| 2026-05-05 10:56 | 13.69354 | 102.11394 | 24014 ft | 380 kts | 250° |
| 2026-05-05 10:56 | 13.68423 | 102.08882 | 23800 ft | 379 kts | 250° |
| 2026-05-05 10:56 | 13.67486 | 102.06354 | 23586 ft | 378 kts | 250° |
| 2026-05-05 10:56 | 13.66552 | 102.03825 | 23370 ft | 377 kts | 250° |
| 2026-05-05 10:57 | 13.65630 | 102.01318 | 23110 ft | 374 kts | 250° |
| 2026-05-05 10:57 | 13.64707 | 101.98819 | 22846 ft | 373 kts | 250° |
| 2026-05-05 10:57 | 13.63787 | 101.96330 | 22597 ft | 371 kts | 250° |
| 2026-05-05 10:57 | 13.62868 | 101.93854 | 22346 ft | 370 kts | 250° |
| 2026-05-05 10:58 | 13.61953 | 101.91386 | 22101 ft | 369 kts | 250° |
| 2026-05-05 10:58 | 13.61045 | 101.88926 | 21847 ft | 367 kts | 250° |
| 2026-05-05 10:58 | 13.60137 | 101.86477 | 21604 ft | 366 kts | 250° |
| 2026-05-05 10:58 | 13.59232 | 101.84043 | 21359 ft | 365 kts | 250° |
| 2026-05-05 10:59 | 13.58328 | 101.81611 | 21116 ft | 363 kts | 250° |
| 2026-05-05 10:59 | 13.57427 | 101.79187 | 20876 ft | 362 kts | 250° |
| 2026-05-05 10:59 | 13.56541 | 101.76800 | 20638 ft | 361 kts | 250° |
| 2026-05-05 10:59 | 13.55648 | 101.74389 | 20404 ft | 361 kts | 250° |
| 2026-05-05 11:00 | 13.54758 | 101.71984 | 20170 ft | 360 kts | 250° |
| 2026-05-05 11:00 | 13.53868 | 101.69590 | 19947 ft | 359 kts | 250° |
| 2026-05-05 11:00 | 13.52977 | 101.67195 | 19709 ft | 358 kts | 249° |
| 2026-05-05 11:00 | 13.52087 | 101.64807 | 19474 ft | 357 kts | 250° |
| 2026-05-05 11:01 | 13.51202 | 101.62425 | 19259 ft | 356 kts | 250° |
| 2026-05-05 11:01 | 13.50318 | 101.60050 | 19026 ft | 355 kts | 250° |
| 2026-05-05 11:01 | 13.49438 | 101.57687 | 18701 ft | 354 kts | 250° |
| 2026-05-05 11:01 | 13.48560 | 101.55332 | 18306 ft | 351 kts | 250° |
| 2026-05-05 11:02 | 13.47690 | 101.52995 | 17872 ft | 348 kts | 250° |
| 2026-05-05 11:02 | 13.46828 | 101.50679 | 17422 ft | 346 kts | 249° |
| 2026-05-05 11:02 | 13.45974 | 101.48382 | 16966 ft | 343 kts | 249° |
| 2026-05-05 11:02 | 13.45126 | 101.46102 | 16525 ft | 340 kts | 249° |
| 2026-05-05 11:03 | 13.44283 | 101.43842 | 16081 ft | 337 kts | 249° |
| 2026-05-05 11:03 | 13.43443 | 101.41600 | 15655 ft | 335 kts | 249° |
| 2026-05-05 11:03 | 13.42621 | 101.39404 | 15236 ft | 332 kts | 249° |
| 2026-05-05 11:03 | 13.41796 | 101.37192 | 14815 ft | 330 kts | 249° |
| 2026-05-05 11:04 | 13.40981 | 101.35001 | 14406 ft | 328 kts | 249° |
| 2026-05-05 11:04 | 13.40166 | 101.32812 | 13994 ft | 326 kts | 248° |
| 2026-05-05 11:04 | 13.39358 | 101.30644 | 13588 ft | 324 kts | 248° |
| 2026-05-05 11:04 | 13.38553 | 101.28485 | 13131 ft | 323 kts | 249° |
| 2026-05-05 11:05 | 13.37750 | 101.26338 | 12685 ft | 321 kts | 249° |
| 2026-05-05 11:05 | 13.36954 | 101.24208 | 12241 ft | 319 kts | 249° |
| 2026-05-05 11:05 | 13.36210 | 101.22062 | 11768 ft | 319 kts | 255° |
| 2026-05-05 11:05 | 13.35858 | 101.19815 | 11287 ft | 319 kts | 267° |
| 2026-05-05 11:06 | 13.35972 | 101.17541 | 10815 ft | 319 kts | 279° |
| 2026-05-05 11:06 | 13.36430 | 101.15308 | 10353 ft | 319 kts | 282° |
| 2026-05-05 11:06 | 13.36903 | 101.13079 | 9884 ft | 319 kts | 282° |
| 2026-05-05 11:06 | 13.37366 | 101.10883 | 9420 ft | 319 kts | 282° |
| 2026-05-05 11:07 | 13.37834 | 101.08660 | 8919 ft | 318 kts | 282° |
| 2026-05-05 11:07 | 13.38301 | 101.06440 | 8423 ft | 317 kts | 282° |
| 2026-05-05 11:07 | 13.38765 | 101.04234 | 7943 ft | 316 kts | 282° |
| 2026-05-05 11:07 | 13.39230 | 101.02022 | 7464 ft | 316 kts | 282° |
| 2026-05-05 11:08 | 13.39692 | 100.99822 | 6984 ft | 315 kts | 282° |
| 2026-05-05 11:08 | 13.40151 | 100.97630 | 6517 ft | 313 kts | 282° |
| 2026-05-05 11:08 | 13.40609 | 100.95444 | 6046 ft | 312 kts | 282° |
| 2026-05-05 11:08 | 13.40909 | 100.94006 | 5723 ft | 312 kts | 282° |
| 2026-05-05 11:09 | 13.41498 | 100.91874 | 5238 ft | 310 kts | 293° |
| 2026-05-05 11:09 | 13.42541 | 100.89947 | 4759 ft | 308 kts | 307° |
| 2026-05-05 11:09 | 13.43987 | 100.88341 | 4278 ft | 307 kts | 321° |
| 2026-05-05 11:09 | 13.45719 | 100.87120 | 4056 ft | 296 kts | 329° |
| 2026-05-05 11:10 | 13.47432 | 100.86007 | 3855 ft | 288 kts | 328° |
| 2026-05-05 11:10 | 13.49095 | 100.84914 | 3659 ft | 280 kts | 328° |
| 2026-05-05 11:10 | 13.50713 | 100.83850 | 3462 ft | 271 kts | 328° |
| 2026-05-05 11:10 | 13.52277 | 100.82821 | 3273 ft | 263 kts | 328° |
| 2026-05-05 11:11 | 13.53874 | 100.82012 | 3094 ft | 252 kts | 343° |
| 2026-05-05 11:11 | 13.55531 | 100.81613 | 2987 ft | 238 kts | 355° |
| 2026-05-05 11:11 | 13.57133 | 100.81583 | 2985 ft | 221 kts | 7° |
| 2026-05-05 11:11 | 13.58630 | 100.81863 | 2995 ft | 218 kts | 18° |
| 2026-05-05 11:12 | 13.60089 | 100.82267 | 2989 ft | 217 kts | 17° |
| 2026-05-05 11:12 | 13.61533 | 100.82665 | 2977 ft | 217 kts | 16° |
| 2026-05-05 11:12 | 13.62988 | 100.83063 | 2976 ft | 216 kts | 16° |
| 2026-05-05 11:12 | 13.64442 | 100.83459 | 2979 ft | 215 kts | 17° |
| 2026-05-05 11:13 | 13.65886 | 100.83853 | 2976 ft | 215 kts | 16° |
| 2026-05-05 11:13 | 13.67328 | 100.84247 | 2978 ft | 213 kts | 18° |
| 2026-05-05 11:13 | 13.68761 | 100.84641 | 2982 ft | 214 kts | 16° |
| 2026-05-05 11:13 | 13.70199 | 100.85035 | 2979 ft | 214 kts | 17° |
| 2026-05-05 11:14 | 13.71644 | 100.85431 | 2980 ft | 215 kts | 17° |
| 2026-05-05 11:14 | 13.73084 | 100.85825 | 2977 ft | 215 kts | 17° |
| 2026-05-05 11:14 | 13.74527 | 100.86222 | 2980 ft | 214 kts | 17° |
| 2026-05-05 11:14 | 13.75966 | 100.86617 | 2980 ft | 214 kts | 17° |
| 2026-05-05 11:15 | 13.77410 | 100.87011 | 2984 ft | 215 kts | 16° |
| 2026-05-05 11:15 | 13.78850 | 100.87404 | 2976 ft | 214 kts | 16° |
| 2026-05-05 11:15 | 13.80274 | 100.87792 | 2979 ft | 214 kts | 17° |
| 2026-05-05 11:15 | 13.81735 | 100.88192 | 2980 ft | 215 kts | 17° |
| 2026-05-05 11:16 | 13.83177 | 100.88583 | 2979 ft | 215 kts | 15° |
| 2026-05-05 11:16 | 13.84651 | 100.88604 | 2980 ft | 218 kts | 348° |
| 2026-05-05 11:16 | 13.86004 | 100.87902 | 2986 ft | 219 kts | 327° |
| 2026-05-05 11:16 | 13.87242 | 100.86983 | 2980 ft | 220 kts | 319° |
| 2026-05-05 11:17 | 13.88144 | 100.85712 | 2982 ft | 223 kts | 295° |
| 2026-05-05 11:17 | 13.88474 | 100.84163 | 2984 ft | 223 kts | 270° |
| 2026-05-05 11:17 | 13.88167 | 100.82614 | 2985 ft | 222 kts | 246° |
| 2026-05-05 11:17 | 13.87285 | 100.81335 | 2984 ft | 220 kts | 221° |
| 2026-05-05 11:18 | 13.85984 | 100.80538 | 2984 ft | 217 kts | 197° |
| 2026-05-05 11:18 | 13.84526 | 100.80137 | 2892 ft | 214 kts | 192° |
| 2026-05-05 11:18 | 13.83130 | 100.79773 | 2665 ft | 201 kts | 192° |
| 2026-05-05 11:18 | 13.81832 | 100.79432 | 2436 ft | 184 kts | 192° |
| 2026-05-05 11:19 | 13.80663 | 100.79125 | 2214 ft | 168 kts | 192° |
| 2026-05-05 11:19 | 13.79573 | 100.78838 | 2004 ft | 156 kts | 192° |
| 2026-05-05 11:19 | 13.78541 | 100.78567 | 1811 ft | 151 kts | 192° |
| 2026-05-05 11:19 | 13.77523 | 100.78300 | 1626 ft | 148 kts | 192° |
| 2026-05-05 11:20 | 13.76531 | 100.78039 | 1428 ft | 147 kts | 193° |
| 2026-05-05 11:20 | 13.75544 | 100.77779 | 1238 ft | 145 kts | 193° |
| 2026-05-05 11:20 | 13.74569 | 100.77523 | 1060 ft | 145 kts | 194° |
| 2026-05-05 11:20 | 13.73589 | 100.77266 | 883 ft | 145 kts | 193° |
| 2026-05-05 11:21 | 13.72619 | 100.77010 | 713 ft | 144 kts | 193° |
| 2026-05-05 11:21 | 13.71656 | 100.76757 | 541 ft | 141 kts | 194° |
| 2026-05-05 11:21 | 13.70700 | 100.76506 | 368 ft | 142 kts | 194° |
| 2026-05-05 11:21 | 13.69746 | 100.76259 | 154 ft | 140 kts | 194° |
| 2026-05-05 11:22 | 13.68833 | 100.76016 | 20 ft | 132 kts | 194° |
| 2026-05-05 11:22 | 13.68063 | 100.75814 | 12 ft | 89 kts | 194° |
| 2026-05-05 11:22 | 13.67639 | 100.75696 | 11 ft | 33 kts | 204° |
| 2026-05-05 11:22 | 13.67484 | 100.75575 | 13 ft | 17 kts | 226° |
| 2026-05-05 11:23 | 13.67469 | 100.75478 | 13 ft | 16 kts | 328° |
| 2026-05-05 11:23 | 13.67578 | 100.75494 | 13 ft | 17 kts | 14° |
| 2026-05-05 11:23 | 13.67696 | 100.75527 | 13 ft | 18 kts | 14° |
| 2026-05-05 11:23 | 13.67823 | 100.75561 | 13 ft | 19 kts | 14° |
| 2026-05-05 11:24 | 13.67953 | 100.75595 | 13 ft | 20 kts | 14° |
| 2026-05-05 11:24 | 13.68094 | 100.75632 | 14 ft | 22 kts | 15° |
| 2026-05-05 11:24 | 13.68241 | 100.75672 | 13 ft | 22 kts | 15° |
| 2026-05-05 11:24 | 13.68386 | 100.75709 | 14 ft | 18 kts | 11° |
| 2026-05-05 11:25 | 13.68458 | 100.75637 | 13 ft | 16 kts | 289° |
| 2026-05-05 11:25 | 13.68489 | 100.75522 | 14 ft | 17 kts | 283° |
| 2026-05-05 11:25 | 13.68520 | 100.75398 | 13 ft | 19 kts | 284° |
| 2026-05-05 11:25 | 13.68554 | 100.75265 | 13 ft | 20 kts | 285° |
| 2026-05-05 11:26 | 13.68598 | 100.75153 | 13 ft | 12 kts | 320° |
| 2026-05-05 11:26 | 13.68650 | 100.75147 | 13 ft | 8 kts | 12° |
| 2026-05-05 11:26 | 13.68690 | 100.75173 | 14 ft | 7 kts | 82° |
| 2026-05-05 11:26 | 13.68680 | 100.75219 | 13 ft | 0 kts | 104° |
| 2026-05-05 11:27 | 13.68679 | 100.75222 | 13 ft | 1 kts | 104° |
| 2026-05-05 11:27 | 13.68679 | 100.75224 | 13 ft | 0 kts | 104° |
| 2026-05-05 11:27 | 13.68677 | 100.75225 | 13 ft | 1 kts | 115° |
| 2026-05-05 11:27 | 13.68669 | 100.75221 | 14 ft | 1 kts | 222° |
| 2026-05-05 11:28 | 13.68673 | 100.75180 | 13 ft | 0 kts | 285° |
| 2026-05-05 11:28 | 13.68674 | 100.75176 | 13 ft | 0 kts | 286° |
| 2026-05-05 11:28 | 13.68674 | 100.75169 | 14 ft | 1 kts | 264° |
| 2026-05-05 11:28 | 13.68643 | 100.75146 | 13 ft | 1 kts | 194° |
| 2026-05-05 11:29 | 13.68633 | 100.75143 | 13 ft | 2 kts | 193° |
| 2026-05-05 11:29 | 13.68609 | 100.75137 | 13 ft | 5 kts | 195° |
| 2026-05-05 11:29 | 13.68520 | 100.75112 | 13 ft | 18 kts | 193° |
| 2026-05-05 11:29 | 13.68435 | 100.75173 | 13 ft | 18 kts | 107° |
| 2026-05-05 11:30 | 13.68397 | 100.75318 | 13 ft | 23 kts | 105° |
| 2026-05-05 11:30 | 13.68417 | 100.75410 | 13 ft | 0 kts | 22° |
| 2026-05-05 11:30 | 13.68431 | 100.75416 | 13 ft | 8 kts | 24° |
| 2026-05-05 11:30 | 13.68519 | 100.75440 | 13 ft | 17 kts | 9° |
| 2026-05-05 11:31 | 13.68596 | 100.75462 | 13 ft | 4 kts | 17° |
| 2026-05-05 11:31 | 13.68624 | 100.75438 | 13 ft | 11 kts | 282° |
| 2026-05-05 11:31 | 13.68639 | 100.75375 | 13 ft | 0 kts | 284° |
| 2026-05-05 11:31 | 13.68641 | 100.75370 | 13 ft | 1 kts | 284° |
| 2026-05-05 11:32 | 13.68642 | 100.75364 | 13 ft | 0 kts | 284° |